Howard AFB, Panama
Current Conditions -  °F | °C
As of 12:00 PM on Tuesday 27 Jan 2015 (Local Time) from MPMG Reporting Station
Scattered Clouds Scattered Clouds  
Wind Chill: 90°   Ceiling: Unl
Heat Index: 92°   Visibility: 6mi
Dew Point: 66°   Wind: 17mph
Humidity: 46%   Direction: 330°NNW
Pressure: 29.88"   Gusts: NA
Location:  8.91°N, 79.6°W
Report Text: MPMG 271700Z 33015KT 9999 SCT018 32/19 Q1012 NOSIG
Loading
Personal Weather Stations






























Interactive Weather Map New forecast layout! Learn more

10-Day Weather Forecast

Advertisements
Track Severe Weather on mobile